Time;durP1;ratioP1;P1;durP2;ratioP2;P2;SDS_P1;SDS_P2;PMS_P1;PMS_P2;Temp;Humidity;BMP_temperature;BMP_pressure;BME280_temperature;BME280_humidity;BME280_pressure;Samples;Min_cycle;Max_cycle;Signal;HPM_P1;HPM_P2
2023/01/16 00:00:27;;;;;;;6.30;4.18;;;;;;;10.54;100.00;101293.19;2088147;28;20041;-71
2023/01/16 00:01:50;;;;;;;10.82;4.50;;;;;;;10.51;100.00;101295.72;2085571;28;20041;-72
2023/01/16 00:03:11;;;;;;;5.43;3.90;;;;;;;10.47;100.00;101292.16;2099313;28;20575;-71
2023/01/16 00:04:35;;;;;;;12.43;4.65;;;;;;;10.44;100.00;101301.72;2101955;28;20059;-71
2023/01/16 00:05:56;;;;;;;18.17;11.15;;;;;;;10.40;100.00;101306.03;2102191;28;20541;-71
2023/01/16 00:07:18;;;;;;;7.15;4.70;;;;;;;10.38;100.00;101300.72;2108403;28;20052;-71
2023/01/16 00:08:41;;;;;;;10.82;6.95;;;;;;;10.37;100.00;101300.69;2100595;28;20063;-71
2023/01/16 00:10:03;;;;;;;9.93;6.05;;;;;;;10.35;100.00;101298.00;2102347;28;20047;-71
2023/01/16 00:11:26;;;;;;;11.50;7.68;;;;;;;10.31;100.00;101290.84;2093925;28;20052;-71
2023/01/16 00:12:47;;;;;;;9.60;6.15;;;;;;;10.28;100.00;101289.91;2094044;28;20147;-72
2023/01/16 00:14:10;;;;;;;7.63;5.22;;;;;;;10.26;100.00;101294.25;2093773;28;20052;-71
2023/01/16 00:15:33;;;;;;;7.95;4.85;;;;;;;10.24;100.00;101295.97;2090415;28;20147;-71
2023/01/16 00:16:55;;;;;;;6.43;4.68;;;;;;;10.21;100.00;101302.03;2097634;28;20079;-71
2023/01/16 00:18:16;;;;;;;8.25;4.78;;;;;;;10.19;100.00;101305.50;2093214;28;20048;-71
2023/01/16 00:19:39;;;;;;;6.95;5.20;;;;;;;10.15;100.00;101303.59;2082968;28;20060;-71
2023/01/16 00:21:02;;;;;;;8.77;5.35;;;;;;;10.13;100.00;101306.19;2096612;28;20048;-71
2023/01/16 00:22:23;;;;;;;7.68;4.63;;;;;;;10.11;100.00;101302.63;2102216;28;20043;-71
2023/01/16 00:23:45;;;;;;;6.68;5.05;;;;;;;10.07;100.00;101303.41;2102185;28;20540;-71
2023/01/16 00:25:09;;;;;;;8.27;5.15;;;;;;;10.06;100.00;101301.59;2110215;28;20047;-71
2023/01/16 00:26:31;;;;;;;6.88;4.75;;;;;;;10.04;100.00;101300.69;2096230;28;20049;-71
2023/01/16 00:27:54;;;;;;;6.65;4.88;;;;;;;10.02;100.00;101302.38;2102209;28;20066;-71
2023/01/16 00:29:16;;;;;;;9.90;6.35;;;;;;;10.02;100.00;101299.75;2102139;28;20052;-71
2023/01/16 00:30:39;;;;;;;10.30;6.22;;;;;;;10.06;100.00;101303.34;2102352;28;20052;-71
2023/01/16 00:32:02;;;;;;;14.27;9.05;;;;;;;10.06;100.00;101296.34;2093905;28;20893;-71
2023/01/16 00:33:24;;;;;;;13.90;9.15;;;;;;;10.07;100.00;101292.84;2101896;28;20102;-71
2023/01/16 00:34:45;;;;;;;9.80;6.47;;;;;;;10.09;100.00;101287.63;2102203;28;20517;-71
2023/01/16 00:36:08;;;;;;;10.60;6.80;;;;;;;10.10;100.00;101292.03;2101242;28;20103;-71
2023/01/16 00:37:30;;;;;;;8.88;6.20;;;;;;;10.10;100.00;101292.94;2103473;28;20063;-71
2023/01/16 00:38:52;;;;;;;8.40;5.78;;;;;;;10.10;100.00;101289.41;2101722;28;20060;-71
2023/01/16 00:40:13;;;;;;;7.45;4.78;;;;;;;10.11;100.00;101291.19;2093747;28;20529;-71
2023/01/16 00:41:36;;;;;;;6.72;4.93;;;;;;;10.09;100.00;101296.44;2099371;28;20520;-71
2023/01/16 00:42:57;;;;;;;7.55;4.85;;;;;;;10.09;100.00;101299.06;2102083;28;20490;-71
2023/01/16 00:44:19;;;;;;;7.53;4.85;;;;;;;10.07;100.00;101292.84;2102118;28;20040;-71
2023/01/16 00:45:42;;;;;;;8.07;5.25;;;;;;;10.06;100.00;101298.06;2101969;28;20077;-71
2023/01/16 00:47:05;;;;;;;7.65;5.25;;;;;;;10.06;100.00;101303.34;2102313;28;20052;-71
2023/01/16 00:48:27;;;;;;;8.70;4.82;;;;;;;10.03;100.00;101301.53;2092634;28;20417;-72
2023/01/16 00:49:49;;;;;;;6.90;5.32;;;;;;;10.00;100.00;101299.72;2099294;28;20048;-71
2023/01/16 00:51:12;;;;;;;10.77;6.65;;;;;;;9.99;100.00;101305.81;2101078;28;20141;-71
2023/01/16 00:52:33;;;;;;;10.05;6.75;;;;;;;9.98;100.00;101300.50;2093973;28;20103;-71
2023/01/16 00:53:55;;;;;;;10.13;6.85;;;;;;;9.98;100.00;101305.78;2097872;28;20159;-71
2023/01/16 00:55:17;;;;;;;12.02;8.18;;;;;;;9.99;100.00;101308.47;2093036;28;20049;-71
2023/01/16 00:56:39;;;;;;;11.35;8.80;;;;;;;10.01;100.00;101300.59;2098546;28;20042;-71
2023/01/16 00:58:00;;;;;;;14.02;11.27;;;;;;;10.04;100.00;101299.81;2100922;28;20036;-71
2023/01/16 00:59:22;;;;;;;13.27;11.07;;;;;;;10.04;100.00;101300.69;2099936;28;20068;-71
2023/01/16 01:00:45;;;;;;;15.80;11.85;;;;;;;10.06;100.00;101298.97;2094365;28;20107;-72
2023/01/16 01:02:07;;;;;;;16.20;12.48;;;;;;;10.06;100.00;101304.25;2101822;28;20509;-72
2023/01/16 01:03:29;;;;;;;14.23;11.32;;;;;;;10.06;100.00;101301.59;2100795;28;20047;-72
2023/01/16 01:04:51;;;;;;;14.52;11.63;;;;;;;10.06;100.00;101298.06;2093670;28;20120;-72
2023/01/16 01:06:13;;;;;;;12.63;9.93;;;;;;;10.06;100.00;101304.25;2097450;28;20049;-72
2023/01/16 01:07:35;;;;;;;12.77;9.93;;;;;;;10.05;100.00;101302.47;2103326;28;20060;-71
2023/01/16 01:08:57;;;;;;;11.32;8.15;;;;;;;10.05;100.00;101298.91;2101947;28;20055;-72
2023/01/16 01:10:19;;;;;;;10.35;6.70;;;;;;;10.05;100.00;101301.56;2090987;28;20068;-72
2023/01/16 01:11:41;;;;;;;9.73;6.35;;;;;;;10.05;100.00;101307.72;2096694;28;20054;-72
2023/01/16 01:13:03;;;;;;;8.27;5.70;;;;;;;10.03;100.00;101298.91;2101864;28;20040;-72
2023/01/16 01:14:26;;;;;;;7.40;4.97;;;;;;;10.03;100.00;101298.00;2101063;28;20044;-71
2023/01/16 01:15:49;;;;;;;8.43;4.90;;;;;;;10.02;100.00;101291.84;2102149;28;20574;-72
2023/01/16 01:17:11;;;;;;;7.93;5.13;;;;;;;10.02;100.00;101291.84;2098990;28;20505;-72
2023/01/16 01:18:33;;;;;;;8.18;4.88;;;;;;;10.00;100.00;101294.44;2092857;28;20143;-72
2023/01/16 01:19:55;;;;;;;7.10;4.60;;;;;;;10.01;100.00;101290.06;2098496;28;20279;-71
2023/01/16 01:21:17;;;;;;;9.90;5.63;;;;;;;10.02;100.00;101291.84;2100401;28;20052;-72
2023/01/16 01:22:39;;;;;;;7.90;4.75;;;;;;;10.03;100.00;101295.38;2102122;28;20046;-72
2023/01/16 01:24:02;;;;;;;7.38;5.00;;;;;;;10.03;100.00;101296.28;2093444;28;20036;-72
2023/01/16 01:25:23;;;;;;;8.40;4.93;;;;;;;10.05;100.00;101297.19;2093772;28;20457;-72
2023/01/16 01:26:46;;;;;;;9.00;5.22;;;;;;;10.07;100.00;101294.59;2093636;28;20475;-71
2023/01/16 01:28:08;;;;;;;8.00;5.05;;;;;;;10.09;100.00;101295.53;2101100;28;20044;-72
2023/01/16 01:29:30;;;;;;;9.30;6.03;;;;;;;10.10;100.00;101292.94;2101941;28;20228;-72
2023/01/16 01:30:54;;;;;;;10.13;6.18;;;;;;;10.13;100.00;101287.72;2101867;28;20150;-72
2023/01/16 01:32:15;;;;;;;7.90;5.43;;;;;;;10.16;100.00;101295.72;2102067;28;20044;-72
2023/01/16 01:33:39;;;;;;;9.27;5.88;;;;;;;10.17;100.00;101294.91;2101688;28;20470;-72
2023/01/16 01:35:00;;;;;;;8.05;5.70;;;;;;;10.19;100.00;101287.03;2102240;28;20048;-71
2023/01/16 01:36:22;;;;;;;9.13;5.75;;;;;;;10.18;100.00;101294.03;2101667;28;20135;-72
2023/01/16 01:37:45;;;;;;;7.63;5.70;;;;;;;10.18;100.00;101282.59;2099238;28;20063;-72
2023/01/16 01:39:06;;;;;;;10.55;4.82;;;;;;;10.19;100.00;101287.91;2103468;28;20044;-71
2023/01/16 01:40:28;;;;;;;7.40;5.00;;;;;;;10.17;100.00;101288.75;2102827;28;20086;-71
2023/01/16 01:41:49;;;;;;;7.90;4.63;;;;;;;10.17;100.00;101284.38;2103393;28;20052;-72
2023/01/16 01:43:14;;;;;;;6.93;4.57;;;;;;;10.16;100.00;101277.25;2103389;28;20509;-72
2023/01/16 01:44:58;;;;;;;6.93;4.75;;;;;;;10.12;100.00;101295.59;2103765;28;20510;-71
2023/01/16 01:46:27;;;;;;;6.50;4.25;;;;;;;10.07;100.00;101287.56;2105751;28;20305;-72
2023/01/16 01:47:54;;;;;;;6.40;4.20;;;;;;;10.04;100.00;101283.97;2095998;28;20444;-72
2023/01/16 01:49:25;;;;;;;10.40;6.20;;;;;;;10.01;100.00;101290.06;2102413;28;20128;-71
2023/01/16 01:50:51;;;;;;;24.15;17.10;;;;;;;9.98;100.00;101285.56;2104671;28;20055;-72
2023/01/16 01:52:13;;;;;;;19.67;13.80;;;;;;;10.00;100.00;101285.63;2095561;28;20040;-72
2023/01/16 01:53:39;;;;;;;18.08;13.60;;;;;;;10.02;100.00;101291.84;2098724;28;20509;-72
2023/01/16 01:55:05;;;;;;;17.58;13.85;;;;;;;10.05;100.00;101286.63;2094499;28;20044;-72
2023/01/16 01:56:31;;;;;;;15.75;12.15;;;;;;;10.08;100.00;101292.00;2092816;28;20476;-72
2023/01/16 01:57:55;;;;;;;17.40;14.07;;;;;;;10.13;100.00;101282.44;2096133;28;20498;-72
2023/01/16 01:59:24;;;;;;;20.75;16.13;;;;;;;10.19;100.00;101287.03;2103628;28;20044;-72
2023/01/16 02:00:47;;;;;;;19.83;17.05;;;;;;;10.22;100.00;101289.75;2103749;28;20047;-72
2023/01/16 02:02:16;;;;;;;19.48;16.35;;;;;;;10.23;100.00;101281.88;2094679;28;20051;-71
2023/01/16 02:03:42;;;;;;;10.60;9.05;;;;;;;10.24;100.00;101280.13;2087261;28;20426;-72
2023/01/16 02:05:06;;;;;;;17.83;14.27;;;;;;;10.22;100.00;101280.09;2093603;28;20438;-72
2023/01/16 02:06:35;;;;;;;11.95;8.05;;;;;;;10.19;100.00;101276.47;2087088;28;20095;-72
2023/01/16 02:07:59;;;;;;;9.90;8.07;;;;;;;10.17;100.00;101281.72;2094107;28;20037;-72
2023/01/16 02:09:23;;;;;;;10.13;7.05;;;;;;;10.14;100.00;101284.25;2099462;28;20048;-72
2023/01/16 02:10:51;;;;;;;9.00;6.50;;;;;;;10.13;100.00;101277.19;2095183;28;20063;-72
2023/01/16 02:12:16;;;;;;;8.60;6.60;;;;;;;10.13;100.00;101289.47;2104032;28;20509;-72
2023/01/16 02:13:39;;;;;;;9.30;7.38;;;;;;;10.10;100.00;101279.75;2105843;28;20044;-71
2023/01/16 02:15:01;;;;;;;8.43;6.80;;;;;;;10.11;100.00;101286.78;2103417;28;20044;-72
2023/01/16 02:19:51;;;;;;;10.43;7.03;;;;;;;10.08;100.00;101278.81;2097441;28;20127;-72
2023/01/16 02:21:36;;;;;;;8.93;5.93;;;;;;;10.08;100.00;101284.09;2097335;28;20048;-72
2023/01/16 02:23:37;;;;;;;7.85;5.40;;;;;;;10.06;100.00;101275.22;2105733;28;20070;-72
2023/01/16 02:25:41;;;;;;;10.60;5.47;;;;;;;10.09;100.00;101282.34;2097312;28;20457;-72
2023/01/16 02:27:26;;;;;;;7.75;5.45;;;;;;;10.10;100.00;101282.38;2097619;28;20557;-71
2023/01/16 02:29:26;;;;;;;7.88;4.78;;;;;;;10.09;100.00;101283.25;2089178;28;20049;-71
2023/01/16 02:31:01;;;;;;;7.60;4.78;;;;;;;10.07;100.00;101274.38;2098675;28;20052;-72
2023/01/16 02:32:50;;;;;;;7.20;4.75;;;;;;;10.05;100.00;101278.72;2102683;28;20170;-72
2023/01/16 02:34:38;;;;;;;7.35;4.80;;;;;;;10.04;100.00;101286.63;2105500;28;20044;-72
2023/01/16 02:36:10;;;;;;;9.45;5.00;;;;;;;10.01;100.00;101282.13;2097489;28;20071;-72
2023/01/16 02:37:41;;;;;;;8.52;5.10;;;;;;;9.99;100.00;101281.19;2104577;28;20103;-71
2023/01/16 02:39:12;;;;;;;8.50;5.43;;;;;;;9.99;100.00;101284.72;2096612;28;20040;-71
2023/01/16 02:40:45;;;;;;;7.90;5.35;;;;;;;10.00;100.00;101280.34;2093267;28;20293;-71
2023/01/16 02:42:17;;;;;;;10.52;6.40;;;;;;;10.03;100.00;101284.81;2096397;28;20071;-72
2023/01/16 02:43:48;;;;;;;9.55;5.63;;;;;;;10.03;100.00;101280.44;2103157;28;20521;-72
2023/01/16 02:45:19;;;;;;;7.90;5.30;;;;;;;10.01;100.00;101290.06;2098528;28;20093;-72
2023/01/16 02:46:49;;;;;;;15.15;9.60;;;;;;;10.00;100.00;101288.25;2104223;28;20381;-72
2023/01/16 02:48:20;;;;;;;12.90;8.57;;;;;;;9.97;100.00;101283.81;2103287;28;20044;-73
2023/01/16 02:49:49;;;;;;;11.63;7.63;;;;;;;9.96;100.00;101291.69;2093159;28;20059;-72
2023/01/16 02:51:16;;;;;;;10.10;7.13;;;;;;;9.95;100.00;101292.53;2102318;28;20040;-72
2023/01/16 02:52:45;;;;;;;9.55;6.68;;;;;;;9.92;100.00;101289.78;2103571;28;20059;-71
2023/01/16 02:54:12;;;;;;;10.45;7.70;;;;;;;9.90;100.00;101288.88;2098801;28;20051;-73
2023/01/16 02:55:36;;;;;;;13.77;10.82;;;;;;;9.85;100.00;101290.47;2103615;28;20047;-72
2023/01/16 02:57:05;;;;;;;15.30;11.98;;;;;;;9.81;100.00;101292.16;2095092;28;20054;-72
2023/01/16 02:58:30;;;;;;;23.55;20.08;;;;;;;9.79;100.00;101296.47;2099143;28;20044;-72
2023/01/16 02:59:53;;;;;;;23.40;20.20;;;;;;;9.77;100.00;101294.69;2101687;28;20052;-72
2023/01/16 03:01:18;;;;;;;23.35;20.33;;;;;;;9.75;100.00;101291.09;2100750;28;20043;-72
2023/01/16 03:02:41;;;;;;;17.40;15.15;;;;;;;9.74;100.00;101295.47;2110608;28;20129;-72
2023/01/16 03:04:06;;;;;;;13.13;11.15;;;;;;;9.71;100.00;101294.50;2097041;28;20632;-72
2023/01/16 03:05:38;;;;;;;11.23;8.38;;;;;;;9.67;100.00;101292.63;2099164;28;20055;-72
2023/01/16 03:07:08;;;;;;;10.40;7.35;;;;;;;9.64;100.00;101295.19;2102110;28;20048;-72
2023/01/16 03:08:41;;;;;;;9.63;7.35;;;;;;;9.61;100.00;101290.72;2103330;28;20051;-72
2023/01/16 03:10:28;;;;;;;11.68;8.90;;;;;;;9.59;100.00;101295.94;2104174;28;20043;-72
2023/01/16 03:12:01;;;;;;;10.35;7.38;;;;;;;9.56;100.00;101295.88;2097134;28;20049;-72
2023/01/16 03:13:43;;;;;;;11.32;8.73;;;;;;;9.57;100.00;101302.03;2096157;28;20509;-72
2023/01/16 03:15:11;;;;;;;10.40;6.53;;;;;;;9.54;100.00;101302.84;2102657;28;20385;-72
2023/01/16 03:16:41;;;;;;;9.48;5.28;;;;;;;9.55;100.00;101301.09;2103675;28;20062;-72
2023/01/16 03:18:16;;;;;;;10.23;6.10;;;;;;;9.56;100.00;101292.34;2103000;28;20642;-72
2023/01/16 03:19:53;;;;;;;9.43;5.85;;;;;;;9.56;100.00;101300.25;2096156;28;20055;-72
2023/01/16 03:21:29;;;;;;;7.43;5.00;;;;;;;9.52;100.00;101296.59;2102591;28;20104;-72
2023/01/16 03:22:58;;;;;;;7.57;5.03;;;;;;;9.50;100.00;101295.69;2096169;28;20047;-72
2023/01/16 03:24:32;;;;;;;8.20;5.40;;;;;;;9.49;100.00;101298.28;2102694;28;20499;-72
2023/01/16 03:25:58;;;;;;;8.77;5.07;;;;;;;9.46;100.00;101293.81;2096888;28;20079;-72
2023/01/16 03:27:32;;;;;;;9.00;5.00;;;;;;;9.45;100.00;101297.28;2103536;28;20056;-72
2023/01/16 03:29:04;;;;;;;7.55;4.88;;;;;;;9.41;100.00;101300.69;2104161;28;20048;-72
2023/01/16 03:30:32;;;;;;;10.43;4.82;;;;;;;9.39;100.00;101302.38;2103870;28;20113;-72
2023/01/16 03:31:59;;;;;;;8.95;4.70;;;;;;;9.40;100.00;101306.81;2103700;28;20055;-72
2023/01/16 03:33:31;;;;;;;8.73;5.25;;;;;;;9.41;100.00;101310.34;2102925;28;20483;-72
2023/01/16 03:34:59;;;;;;;8.57;5.38;;;;;;;9.40;100.00;101305.91;2086950;28;20045;-73
2023/01/16 03:36:29;;;;;;;12.95;7.28;;;;;;;9.42;100.00;101304.22;2093468;28;20052;-72
2023/01/16 03:37:54;;;;;;;15.68;8.57;;;;;;;9.42;100.00;101302.47;2087159;28;20067;-72
2023/01/16 03:39:21;;;;;;;12.95;7.95;;;;;;;9.41;100.00;101305.97;2092339;28;20067;-72
2023/01/16 03:40:47;;;;;;;13.25;8.02;;;;;;;9.41;100.00;101303.31;2088897;28;20060;-72
2023/01/16 03:42:12;;;;;;;12.00;7.78;;;;;;;9.42;100.00;101299.84;2088258;28;20079;-72
2023/01/16 03:43:39;;;;;;;14.18;8.23;;;;;;;9.43;100.00;101308.66;2097298;28;20055;-72
2023/01/16 03:45:07;;;;;;;13.05;7.85;;;;;;;9.43;100.00;101309.53;2101264;28;20047;-72
2023/01/16 03:46:32;;;;;;;11.93;8.15;;;;;;;9.43;100.00;101308.66;2102411;28;20361;-72
2023/01/16 03:48:03;;;;;;;14.25;9.52;;;;;;;9.43;100.00;101314.81;2102781;28;20138;-72
2023/01/16 03:49:33;;;;;;;19.73;15.27;;;;;;;9.42;100.00;101307.75;2094255;28;20572;-72
2023/01/16 03:50:59;;;;;;;16.58;12.77;;;;;;;9.44;100.00;101313.97;2098893;28;20044;-72
2023/01/16 03:52:25;;;;;;;22.05;17.08;;;;;;;9.48;100.00;101314.94;2088581;28;20142;-73
2023/01/16 03:53:53;;;;;;;23.02;17.38;;;;;;;9.51;100.00;101315.94;2091377;28;20071;-72
2023/01/16 03:55:20;;;;;;;21.70;15.18;;;;;;;9.57;100.00;101310.84;2094616;28;20040;-72
2023/01/16 03:56:49;;;;;;;16.33;11.90;;;;;;;9.59;100.00;101313.50;2086435;28;20148;-72
2023/01/16 03:58:18;;;;;;;16.05;11.93;;;;;;;9.60;100.00;101317.91;2091854;28;20044;-71
2023/01/16 03:59:44;;;;;;;13.00;9.32;;;;;;;9.59;100.00;101317.03;2108017;28;20102;-72
2023/01/16 04:01:18;;;;;;;12.45;8.98;;;;;;;9.58;100.00;101317.88;2104560;28;20493;-72
2023/01/16 04:02:46;;;;;;;11.52;7.82;;;;;;;9.57;100.00;101317.84;2087134;28;20603;-71
2023/01/16 04:04:15;;;;;;;11.85;8.40;;;;;;;9.54;100.00;101320.38;2089165;28;20094;-71
2023/01/16 04:05:44;;;;;;;11.80;8.90;;;;;;;9.54;100.00;101328.28;2103461;28;20051;-72
2023/01/16 04:07:11;;;;;;;11.40;7.53;;;;;;;9.53;100.00;101327.41;2100354;28;20051;-72
2023/01/16 04:08:37;;;;;;;11.95;8.18;;;;;;;9.55;100.00;101325.69;2086387;28;20498;-72
2023/01/16 04:10:01;;;;;;;14.88;8.50;;;;;;;9.59;100.00;101327.56;2092034;28;20127;-72
2023/01/16 04:11:25;;;;;;;14.40;9.40;;;;;;;9.63;100.00;101328.56;2092601;28;20082;-73
2023/01/16 04:12:54;;;;;;;15.57;10.45;;;;;;;9.68;100.00;101326.03;2093463;28;20135;-72
2023/01/16 04:14:19;;;;;;;15.63;9.52;;;;;;;9.70;100.00;101333.16;2094816;28;20057;-73
2023/01/16 04:15:48;;;;;;;16.50;10.05;;;;;;;9.72;100.00;101333.19;2099457;28;20044;-72
2023/01/16 04:17:11;;;;;;;15.48;11.55;;;;;;;9.68;100.00;101332.22;2103758;28;20138;-72
2023/01/16 04:18:35;;;;;;;18.55;12.45;;;;;;;9.68;100.00;101329.56;2103837;28;20044;-72
2023/01/16 04:19:58;;;;;;;13.50;8.35;;;;;;;9.67;100.00;101332.16;2094076;28;20494;-73
2023/01/16 04:21:28;;;;;;;13.13;9.35;;;;;;;9.63;100.00;101327.66;2098272;28;20040;-73
2023/01/16 04:22:51;;;;;;;15.63;10.38;;;;;;;9.60;100.00;101339.00;2102516;28;20086;-72
2023/01/16 04:24:14;;;;;;;14.55;9.15;;;;;;;9.58;100.00;101338.09;2100515;28;20052;-72
2023/01/16 04:25:36;;;;;;;17.17;10.20;;;;;;;9.59;100.00;101343.38;2101450;28;20183;-72
2023/01/16 04:26:58;;;;;;;14.32;9.48;;;;;;;9.60;100.00;101339.00;2093955;28;20041;-72
2023/01/16 04:28:19;;;;;;;18.38;11.73;;;;;;;9.63;100.00;101338.22;2098466;28;20505;-72
2023/01/16 04:29:42;;;;;;;16.50;10.90;;;;;;;9.63;100.00;101340.84;2093634;28;20102;-72
2023/01/16 04:31:05;;;;;;;13.10;8.68;;;;;;;9.66;100.00;101340.91;2085414;28;20482;-72
2023/01/16 04:32:26;;;;;;;18.02;11.75;;;;;;;9.67;100.00;101343.59;2091318;28;20401;-72
2023/01/16 04:33:48;;;;;;;22.55;16.23;;;;;;;9.66;100.00;101343.56;2085517;28;20057;-73
2023/01/16 04:35:12;;;;;;;20.27;13.82;;;;;;;9.66;100.00;101351.47;2093890;28;20040;-72
2023/01/16 04:36:35;;;;;;;18.50;13.27;;;;;;;9.66;100.00;101357.63;2097934;28;20047;-72
2023/01/16 04:37:58;;;;;;;19.23;13.48;;;;;;;9.65;100.00;101353.19;2100844;28;20048;-73
2023/01/16 04:39:19;;;;;;;19.60;13.80;;;;;;;9.60;100.00;101354.81;2102284;28;20101;-72
2023/01/16 04:40:41;;;;;;;19.00;13.10;;;;;;;9.53;100.00;101348.47;2101170;28;20105;-72
2023/01/16 04:42:03;;;;;;;16.60;12.05;;;;;;;9.51;100.00;101352.84;2104834;28;20101;-73
2023/01/16 04:43:25;;;;;;;17.63;12.20;;;;;;;9.48;100.00;101350.09;2102275;28;20040;-73
2023/01/16 04:44:48;;;;;;;15.88;10.77;;;;;;;9.44;100.00;101353.50;2097716;28;20052;-72
2023/01/16 04:46:09;;;;;;;23.92;18.25;;;;;;;9.40;100.00;101354.22;2102127;28;20485;-72
2023/01/16 04:47:31;;;;;;;34.85;28.52;;;;;;;9.39;100.00;101355.06;2100938;28;20135;-72
2023/01/16 04:48:53;;;;;;;34.53;28.08;;;;;;;9.38;100.00;101353.31;2102415;28;20074;-72
2023/01/16 04:50:15;;;;;;;32.20;24.25;;;;;;;9.39;100.00;101355.06;2102232;28;20497;-72
2023/01/16 04:51:39;;;;;;;20.65;14.88;;;;;;;9.38;100.00;101353.31;2102365;28;20040;-72
2023/01/16 04:53:01;;;;;;;17.25;11.02;;;;;;;9.35;100.00;101353.22;2094176;28;20139;-73
2023/01/16 04:54:23;;;;;;;17.55;11.93;;;;;;;9.34;100.00;101353.16;2097799;28;20044;-73
2023/01/16 04:55:45;;;;;;;37.28;28.58;;;;;;;9.28;100.00;101348.59;2093698;28;20052;-72
2023/01/16 04:57:07;;;;;;;42.03;34.05;;;;;;;9.28;100.00;101352.97;2093972;28;20413;-73
2023/01/16 04:58:29;;;;;;;52.70;39.40;;;;;;;9.25;100.00;101359.06;2093745;28;20060;-72
2023/01/16 04:59:52;;;;;;;63.00;46.63;;;;;;;9.24;100.00;101352.00;2099306;28;20643;-72
2023/01/16 05:01:13;;;;;;;56.78;43.70;;;;;;;9.24;100.00;101357.28;2096968;28;20047;-72
2023/01/16 05:02:35;;;;;;;61.67;47.05;;;;;;;9.22;100.00;101358.06;2100799;28;20043;-72
2023/01/16 05:03:58;;;;;;;54.50;41.80;;;;;;;9.22;100.00;101360.69;2102203;28;20040;-73
2023/01/16 05:05:20;;;;;;;62.38;49.58;;;;;;;9.20;100.00;101358.00;2101259;28;20545;-72
2023/01/16 05:06:43;;;;;;;62.13;51.25;;;;;;;9.23;100.00;101360.75;2097329;28;20083;-72
2023/01/16 05:08:17;;;;;;;56.22;43.15;;;;;;;9.25;100.00;101359.06;2102231;28;20075;-72
2023/01/16 05:09:39;;;;;;;54.88;44.47;;;;;;;9.28;100.00;101364.41;2102641;28;20394;-72
2023/01/16 05:11:01;;;;;;;48.40;37.05;;;;;;;9.31;100.00;101363.63;2099693;28;20587;-72
2023/01/16 05:12:23;;;;;;;52.97;36.60;;;;;;;9.33;100.00;101368.06;2105032;28;20051;-72
2023/01/16 05:13:45;;;;;;;43.95;33.58;;;;;;;9.34;100.00;101369.84;2101581;28;20073;-72
2023/01/16 05:15:09;;;;;;;40.50;31.92;;;;;;;9.34;100.00;101367.22;2100489;28;20048;-72
2023/01/16 05:16:31;;;;;;;32.38;24.10;;;;;;;9.33;100.00;101370.69;2098579;28;20052;-72
2023/01/16 05:17:54;;;;;;;35.30;26.10;;;;;;;9.31;100.00;101372.41;2103604;28;20581;-73
2023/01/16 05:19:16;;;;;;;34.60;26.17;;;;;;;9.29;100.00;101368.84;2102447;28;20043;-72
2023/01/16 05:20:37;;;;;;;29.00;23.38;;;;;;;9.28;100.00;101372.31;2102508;28;20048;-72
2023/01/16 05:22:01;;;;;;;36.25;27.10;;;;;;;9.27;100.00;101375.78;2103529;28;20101;-72
2023/01/16 05:23:24;;;;;;;30.75;23.30;;;;;;;9.26;100.00;101379.25;2098986;28;20108;-71
2023/01/16 05:24:45;;;;;;;23.83;16.73;;;;;;;9.25;100.00;101376.59;2111068;28;20059;-73
2023/01/16 05:26:08;;;;;;;23.92;18.15;;;;;;;9.25;100.00;101384.50;2111345;28;20039;-73
2023/01/16 05:27:30;;;;;;;35.78;24.02;;;;;;;9.23;100.00;101375.66;2097807;28;20040;-73
2023/01/16 05:28:53;;;;;;;30.20;19.02;;;;;;;9.23;100.00;101371.28;2095440;28;20083;-73
2023/01/16 05:30:16;;;;;;;23.52;15.25;;;;;;;9.23;100.00;101373.03;2100533;28;20044;-72
2023/01/16 05:31:38;;;;;;;32.58;21.27;;;;;;;9.23;100.00;101379.19;2105410;28;20040;-72
2023/01/16 05:33:01;;;;;;;32.10;21.15;;;;;;;9.26;100.00;101373.09;2100662;28;20044;-73
2023/01/16 05:34:23;;;;;;;64.93;44.42;;;;;;;9.28;100.00;101371.41;2094043;28;20044;-73
2023/01/16 05:35:46;;;;;;;58.95;41.55;;;;;;;9.32;100.00;101375.94;2097996;28;20460;-73
2023/01/16 05:37:10;;;;;;;66.22;45.83;;;;;;;9.34;100.00;101377.75;2089194;28;20056;-73
2023/01/16 05:38:31;;;;;;;51.17;36.33;;;;;;;9.34;100.00;101376.88;2099932;28;20107;-72
2023/01/16 05:39:56;;;;;;;48.17;32.75;;;;;;;9.35;100.00;101378.66;2102312;28;20044;-73
2023/01/16 05:41:19;;;;;;;46.05;32.63;;;;;;;9.37;100.00;101375.25;2103642;28;20167;-73
2023/01/16 05:42:44;;;;;;;51.00;34.72;;;;;;;9.41;100.00;101376.22;2086612;28;20083;-72
2023/01/16 05:44:06;;;;;;;55.53;38.80;;;;;;;9.45;100.00;101376.34;2101406;28;20048;-72
2023/01/16 05:45:29;;;;;;;57.80;42.08;;;;;;;9.53;100.00;101380.09;2098031;28;20832;-72
2023/01/16 05:46:51;;;;;;;56.10;39.55;;;;;;;9.62;100.00;101386.50;2101486;28;20036;-72
2023/01/16 05:48:14;;;;;;;52.40;38.70;;;;;;;9.69;100.00;101381.44;2103226;28;20055;-73
2023/01/16 05:49:36;;;;;;;48.70;36.92;;;;;;;9.74;100.00;101379.84;2106291;28;20486;-72
2023/01/16 05:50:59;;;;;;;50.03;39.22;;;;;;;9.78;100.00;101386.09;2097796;28;20052;-73
2023/01/16 05:52:22;;;;;;;79.78;53.53;;;;;;;9.77;100.00;101382.56;2102541;28;20055;-73
2023/01/16 05:53:47;;;;;;;85.15;56.08;;;;;;;9.74;100.00;101386.84;2095426;28;20421;-73
2023/01/16 05:55:09;;;;;;;76.70;55.08;;;;;;;9.72;100.00;101392.06;2094547;28;20040;-72
2023/01/16 05:56:32;;;;;;;74.68;54.33;;;;;;;9.74;100.00;101390.38;2094957;28;20112;-72
2023/01/16 05:57:54;;;;;;;79.57;54.20;;;;;;;9.77;100.00;101390.50;2097452;28;20052;-72
2023/01/16 05:59:16;;;;;;;66.75;48.75;;;;;;;9.83;100.00;101397.69;2103230;28;20554;-73
2023/01/16 06:00:39;;;;;;;68.07;48.08;;;;;;;9.88;100.00;101398.69;2097512;28;20048;-73
2023/01/16 06:02:02;;;;;;;58.95;42.17;;;;;;;9.94;100.00;101401.50;2097776;28;20040;-73
2023/01/16 06:03:24;;;;;;;55.33;43.03;;;;;;;9.98;100.00;101398.09;2103137;28;20060;-73
2023/01/16 06:04:47;;;;;;;50.67;38.50;;;;;;;10.06;100.00;101403.59;2105021;28;20097;-73
2023/01/16 06:06:09;;;;;;;321.80;206.38;;;;;;;10.08;100.00;101396.63;2095024;28;20052;-73
2023/01/16 06:07:33;;;;;;;225.18;137.40;;;;;;;10.10;100.00;101393.19;2095004;28;20052;-73
2023/01/16 06:08:55;;;;;;;249.52;151.10;;;;;;;10.10;100.00;101393.19;2086793;28;20041;-73
2023/01/16 06:10:18;;;;;;;270.02;169.98;;;;;;;10.10;100.00;101395.81;2096508;28;20052;-72
2023/01/16 06:11:40;;;;;;;204.00;126.22;;;;;;;10.09;100.00;101404.56;2095678;28;20048;-72
2023/01/16 06:13:03;;;;;;;202.38;123.75;;;;;;;10.07;100.00;101397.47;2097953;28;20505;-72
2023/01/16 06:14:24;;;;;;;202.35;122.90;;;;;;;10.08;100.00;101402.78;2094161;28;20039;-73
2023/01/16 06:15:46;;;;;;;185.60;113.47;;;;;;;10.10;100.00;101405.47;2102977;28;20052;-73
2023/01/16 06:17:09;;;;;;;210.38;130.80;;;;;;;10.12;100.00;101404.66;2102539;28;20036;-73
2023/01/16 06:18:30;;;;;;;267.10;167.55;;;;;;;10.17;100.00;101404.81;2094662;28;20051;-73
2023/01/16 06:19:52;;;;;;;250.32;153.95;;;;;;;10.23;100.00;101403.25;2101312;28;20081;-72
2023/01/16 06:21:14;;;;;;;256.40;160.15;;;;;;;10.29;100.00;101403.41;2088430;28;20048;-73
2023/01/16 06:22:38;;;;;;;227.07;139.13;;;;;;;10.32;100.00;101397.31;2099788;28;20078;-72
2023/01/16 06:24:00;;;;;;;201.30;127.38;;;;;;;10.31;100.00;101404.31;2101112;28;20044;-71
2023/01/16 06:25:23;;;;;;;166.50;109.38;;;;;;;10.31;100.00;101406.97;2102232;28;20062;-72
2023/01/16 06:26:44;;;;;;;188.07;119.97;;;;;;;10.32;100.00;101407.84;2092981;28;20044;-72
2023/01/16 06:28:07;;;;;;;138.38;92.68;;;;;;;10.31;100.00;101413.97;2097245;28;20127;-73
2023/01/16 06:29:29;;;;;;;168.40;108.70;;;;;;;10.31;100.00;101414.88;2102790;28;20098;-73
2023/01/16 06:30:53;;;;;;;233.32;150.32;;;;;;;10.31;100.00;101412.25;2100001;28;20036;-72
2023/01/16 06:32:16;;;;;;;149.05;99.47;;;;;;;10.30;100.00;101415.75;2096072;28;20051;-72